sensor_id;sensor_type;location;lat;lon;timestamp;P1;durP1;ratioP1;P2;durP2;ratioP2
16906;SDS011;8570;52.380;4.654;2023-07-13T00:02:24;34.15;;;5.47;;
16906;SDS011;8570;52.380;4.654;2023-07-13T00:07:27;18.00;;;4.43;;
16906;SDS011;8570;52.380;4.654;2023-07-13T00:12:31;21.58;;;4.60;;
16906;SDS011;8570;52.380;4.654;2023-07-13T00:17:34;19.15;;;3.88;;
16906;SDS011;8570;52.380;4.654;2023-07-13T00:22:38;19.30;;;4.00;;
16906;SDS011;8570;52.380;4.654;2023-07-13T00:27:42;13.30;;;3.08;;
16906;SDS011;8570;52.380;4.654;2023-07-13T00:32:45;10.80;;;2.67;;
16906;SDS011;8570;52.380;4.654;2023-07-13T00:37:46;8.68;;;2.58;;
16906;SDS011;8570;52.380;4.654;2023-07-13T00:42:50;10.45;;;1.98;;
16906;SDS011;8570;52.380;4.654;2023-07-13T00:47:53;8.90;;;1.95;;
16906;SDS011;8570;52.380;4.654;2023-07-13T00:52:58;13.25;;;2.03;;
16906;SDS011;8570;52.380;4.654;2023-07-13T00:58:02;7.65;;;1.85;;
16906;SDS011;8570;52.380;4.654;2023-07-13T01:03:05;9.77;;;2.10;;
16906;SDS011;8570;52.380;4.654;2023-07-13T01:08:07;13.15;;;2.10;;
16906;SDS011;8570;52.380;4.654;2023-07-13T01:13:10;7.68;;;2.38;;
16906;SDS011;8570;52.380;4.654;2023-07-13T01:18:13;10.40;;;1.92;;
16906;SDS011;8570;52.380;4.654;2023-07-13T01:23:18;11.20;;;2.22;;
16906;SDS011;8570;52.380;4.654;2023-07-13T01:28:20;13.20;;;2.08;;
16906;SDS011;8570;52.380;4.654;2023-07-13T01:33:26;10.55;;;2.45;;
16906;SDS011;8570;52.380;4.654;2023-07-13T01:38:30;8.50;;;2.10;;
16906;SDS011;8570;52.380;4.654;2023-07-13T01:43:32;9.05;;;2.38;;
16906;SDS011;8570;52.380;4.654;2023-07-13T01:48:35;6.57;;;1.83;;
16906;SDS011;8570;52.380;4.654;2023-07-13T01:53:38;6.68;;;2.20;;
16906;SDS011;8570;52.380;4.654;2023-07-13T01:58:40;10.35;;;2.25;;
16906;SDS011;8570;52.380;4.654;2023-07-13T02:03:42;6.65;;;1.75;;
16906;SDS011;8570;52.380;4.654;2023-07-13T02:08:46;7.30;;;2.03;;
16906;SDS011;8570;52.380;4.654;2023-07-13T02:13:48;6.20;;;2.00;;
16906;SDS011;8570;52.380;4.654;2023-07-13T02:18:50;8.90;;;2.10;;
16906;SDS011;8570;52.380;4.654;2023-07-13T02:23:53;4.22;;;2.20;;
16906;SDS011;8570;52.380;4.654;2023-07-13T02:28:57;13.23;;;2.10;;
16906;SDS011;8570;52.380;4.654;2023-07-13T02:33:59;9.02;;;2.30;;
16906;SDS011;8570;52.380;4.654;2023-07-13T02:39:04;10.05;;;2.65;;
16906;SDS011;8570;52.380;4.654;2023-07-13T02:44:06;10.25;;;2.50;;
16906;SDS011;8570;52.380;4.654;2023-07-13T02:49:08;13.27;;;2.83;;
16906;SDS011;8570;52.380;4.654;2023-07-13T02:54:11;13.10;;;2.97;;
16906;SDS011;8570;52.380;4.654;2023-07-13T02:59:14;11.98;;;2.50;;
16906;SDS011;8570;52.380;4.654;2023-07-13T03:04:15;14.13;;;3.00;;
16906;SDS011;8570;52.380;4.654;2023-07-13T03:09:23;13.18;;;3.15;;
16906;SDS011;8570;52.380;4.654;2023-07-13T03:14:26;12.38;;;2.97;;
16906;SDS011;8570;52.380;4.654;2023-07-13T03:19:28;10.10;;;3.30;;
16906;SDS011;8570;52.380;4.654;2023-07-13T03:24:31;7.93;;;2.70;;
16906;SDS011;8570;52.380;4.654;2023-07-13T03:29:33;11.07;;;3.03;;
16906;SDS011;8570;52.380;4.654;2023-07-13T03:34:35;12.52;;;3.28;;
16906;SDS011;8570;52.380;4.654;2023-07-13T03:39:39;14.30;;;3.13;;
16906;SDS011;8570;52.380;4.654;2023-07-13T03:44:42;11.15;;;3.50;;
16906;SDS011;8570;52.380;4.654;2023-07-13T03:49:46;16.35;;;3.30;;
16906;SDS011;8570;52.380;4.654;2023-07-13T03:54:49;12.82;;;3.22;;
16906;SDS011;8570;52.380;4.654;2023-07-13T03:59:51;12.80;;;3.13;;
16906;SDS011;8570;52.380;4.654;2023-07-13T04:04:53;15.30;;;3.20;;
16906;SDS011;8570;52.380;4.654;2023-07-13T04:09:56;11.55;;;3.22;;
16906;SDS011;8570;52.380;4.654;2023-07-13T04:14:58;12.45;;;2.85;;
16906;SDS011;8570;52.380;4.654;2023-07-13T04:20:00;10.38;;;2.85;;
16906;SDS011;8570;52.380;4.654;2023-07-13T04:25:06;15.05;;;3.20;;
16906;SDS011;8570;52.380;4.654;2023-07-13T04:30:08;9.93;;;3.40;;
16906;SDS011;8570;52.380;4.654;2023-07-13T04:35:10;13.85;;;3.10;;
16906;SDS011;8570;52.380;4.654;2023-07-13T04:40:15;12.23;;;3.60;;
16906;SDS011;8570;52.380;4.654;2023-07-13T04:45:18;9.27;;;3.03;;
16906;SDS011;8570;52.380;4.654;2023-07-13T04:50:20;11.00;;;3.28;;
16906;SDS011;8570;52.380;4.654;2023-07-13T04:55:24;16.58;;;2.97;;
16906;SDS011;8570;52.380;4.654;2023-07-13T05:00:30;11.70;;;3.40;;
16906;SDS011;8570;52.380;4.654;2023-07-13T05:05:32;9.60;;;3.00;;
16906;SDS011;8570;52.380;4.654;2023-07-13T05:10:36;11.88;;;2.90;;
16906;SDS011;8570;52.380;4.654;2023-07-13T05:15:38;7.43;;;2.58;;
16906;SDS011;8570;52.380;4.654;2023-07-13T05:20:40;14.90;;;3.25;;
16906;SDS011;8570;52.380;4.654;2023-07-13T05:25:43;11.18;;;3.08;;
16906;SDS011;8570;52.380;4.654;2023-07-13T05:30:45;9.32;;;2.40;;
16906;SDS011;8570;52.380;4.654;2023-07-13T05:35:50;14.18;;;2.97;;
16906;SDS011;8570;52.380;4.654;2023-07-13T05:40:54;9.30;;;2.70;;
16906;SDS011;8570;52.380;4.654;2023-07-13T05:45:57;8.55;;;3.10;;
16906;SDS011;8570;52.380;4.654;2023-07-13T05:51:00;6.88;;;2.50;;
16906;SDS011;8570;52.380;4.654;2023-07-13T05:56:06;9.82;;;3.15;;
16906;SDS011;8570;52.380;4.654;2023-07-13T06:01:10;8.82;;;2.92;;
16906;SDS011;8570;52.380;4.654;2023-07-13T06:06:13;14.00;;;2.47;;
16906;SDS011;8570;52.380;4.654;2023-07-13T06:11:18;9.38;;;2.88;;
16906;SDS011;8570;52.380;4.654;2023-07-13T06:16:22;6.78;;;2.47;;
16906;SDS011;8570;52.380;4.654;2023-07-13T06:21:24;14.80;;;3.10;;
16906;SDS011;8570;52.380;4.654;2023-07-13T06:26:28;10.60;;;2.75;;
16906;SDS011;8570;52.380;4.654;2023-07-13T06:31:32;7.28;;;2.55;;
16906;SDS011;8570;52.380;4.654;2023-07-13T06:36:34;7.13;;;2.97;;
16906;SDS011;8570;52.380;4.654;2023-07-13T06:41:39;10.55;;;2.65;;
16906;SDS011;8570;52.380;4.654;2023-07-13T06:46:41;9.52;;;2.55;;
16906;SDS011;8570;52.380;4.654;2023-07-13T06:51:43;10.27;;;3.45;;
16906;SDS011;8570;52.380;4.654;2023-07-13T06:56:47;7.97;;;2.30;;
16906;SDS011;8570;52.380;4.654;2023-07-13T07:01:49;9.13;;;2.40;;
16906;SDS011;8570;52.380;4.654;2023-07-13T07:06:51;5.80;;;2.58;;
16906;SDS011;8570;52.380;4.654;2023-07-13T07:11:54;7.53;;;2.75;;
16906;SDS011;8570;52.380;4.654;2023-07-13T07:16:56;6.72;;;2.38;;
16906;SDS011;8570;52.380;4.654;2023-07-13T07:21:59;8.13;;;2.60;;
16906;SDS011;8570;52.380;4.654;2023-07-13T07:27:02;6.85;;;2.53;;
16906;SDS011;8570;52.380;4.654;2023-07-13T07:32:05;9.70;;;2.65;;
16906;SDS011;8570;52.380;4.654;2023-07-13T07:37:09;10.57;;;2.63;;
16906;SDS011;8570;52.380;4.654;2023-07-13T07:42:14;10.90;;;2.75;;
16906;SDS011;8570;52.380;4.654;2023-07-13T07:47:16;13.52;;;2.35;;
16906;SDS011;8570;52.380;4.654;2023-07-13T07:52:18;6.93;;;2.33;;
16906;SDS011;8570;52.380;4.654;2023-07-13T07:57:22;10.65;;;2.47;;
16906;SDS011;8570;52.380;4.654;2023-07-13T08:02:24;8.68;;;2.53;;
16906;SDS011;8570;52.380;4.654;2023-07-13T08:07:26;13.05;;;3.10;;
16906;SDS011;8570;52.380;4.654;2023-07-13T08:12:29;7.50;;;2.97;;
16906;SDS011;8570;52.380;4.654;2023-07-13T08:17:34;7.10;;;2.85;;
16906;SDS011;8570;52.380;4.654;2023-07-13T08:22:36;9.48;;;3.10;;
16906;SDS011;8570;52.380;4.654;2023-07-13T08:27:39;8.85;;;2.90;;
16906;SDS011;8570;52.380;4.654;2023-07-13T08:32:41;10.90;;;2.92;;
16906;SDS011;8570;52.380;4.654;2023-07-13T08:37:43;4.68;;;2.20;;
16906;SDS011;8570;52.380;4.654;2023-07-13T08:42:48;5.57;;;2.30;;
16906;SDS011;8570;52.380;4.654;2023-07-13T08:47:57;7.57;;;2.08;;
16906;SDS011;8570;52.380;4.654;2023-07-13T08:53:04;5.50;;;2.47;;
16906;SDS011;8570;52.380;4.654;2023-07-13T08:58:10;6.65;;;2.47;;
16906;SDS011;8570;52.380;4.654;2023-07-13T09:03:16;10.98;;;2.80;;
16906;SDS011;8570;52.380;4.654;2023-07-13T09:13:50;13.25;;;3.00;;
16906;SDS011;8570;52.380;4.654;2023-07-13T09:19:01;7.93;;;2.72;;
16906;SDS011;8570;52.380;4.654;2023-07-13T09:24:22;7.13;;;2.50;;
16906;SDS011;8570;52.380;4.654;2023-07-13T09:29:32;7.43;;;2.40;;
16906;SDS011;8570;52.380;4.654;2023-07-13T09:34:35;7.78;;;2.40;;
16906;SDS011;8570;52.380;4.654;2023-07-13T09:39:39;7.57;;;2.47;;
16906;SDS011;8570;52.380;4.654;2023-07-13T09:44:51;5.13;;;2.10;;
16906;SDS011;8570;52.380;4.654;2023-07-13T09:49:55;7.07;;;2.40;;
16906;SDS011;8570;52.380;4.654;2023-07-13T09:54:58;8.20;;;2.53;;
16906;SDS011;8570;52.380;4.654;2023-07-13T10:00:02;7.35;;;2.30;;
16906;SDS011;8570;52.380;4.654;2023-07-13T10:05:06;7.07;;;2.40;;
16906;SDS011;8570;52.380;4.654;2023-07-13T10:10:14;5.22;;;2.45;;
16906;SDS011;8570;52.380;4.654;2023-07-13T10:15:19;8.20;;;2.63;;
16906;SDS011;8570;52.380;4.654;2023-07-13T10:20:23;7.18;;;2.25;;
16906;SDS011;8570;52.380;4.654;2023-07-13T10:25:28;8.68;;;2.90;;
16906;SDS011;8570;52.380;4.654;2023-07-13T10:30:34;6.95;;;2.70;;
16906;SDS011;8570;52.380;4.654;2023-07-13T10:35:40;5.40;;;2.28;;
16906;SDS011;8570;52.380;4.654;2023-07-13T10:40:45;8.45;;;2.30;;
16906;SDS011;8570;52.380;4.654;2023-07-13T10:45:58;8.43;;;2.33;;
16906;SDS011;8570;52.380;4.654;2023-07-13T10:51:00;10.70;;;3.25;;
16906;SDS011;8570;52.380;4.654;2023-07-13T10:56:10;7.93;;;2.05;;
16906;SDS011;8570;52.380;4.654;2023-07-13T11:01:23;9.70;;;2.28;;
16906;SDS011;8570;52.380;4.654;2023-07-13T11:06:31;9.57;;;3.10;;
16906;SDS011;8570;52.380;4.654;2023-07-13T11:11:39;9.02;;;2.63;;
16906;SDS011;8570;52.380;4.654;2023-07-13T11:16:46;8.20;;;2.20;;
16906;SDS011;8570;52.380;4.654;2023-07-13T11:22:01;7.30;;;2.13;;
16906;SDS011;8570;52.380;4.654;2023-07-13T11:27:15;7.55;;;2.65;;
16906;SDS011;8570;52.380;4.654;2023-07-13T11:32:29;11.93;;;2.20;;
16906;SDS011;8570;52.380;4.654;2023-07-13T11:37:32;7.93;;;2.38;;
16906;SDS011;8570;52.380;4.654;2023-07-13T11:42:34;9.70;;;2.35;;
16906;SDS011;8570;52.380;4.654;2023-07-13T11:47:40;9.52;;;2.83;;
16906;SDS011;8570;52.380;4.654;2023-07-13T11:52:44;8.98;;;3.00;;
16906;SDS011;8570;52.380;4.654;2023-07-13T11:57:47;7.80;;;2.55;;
16906;SDS011;8570;52.380;4.654;2023-07-13T12:02:54;6.25;;;2.53;;
16906;SDS011;8570;52.380;4.654;2023-07-13T12:07:59;10.35;;;2.50;;
16906;SDS011;8570;52.380;4.654;2023-07-13T12:13:11;9.30;;;2.70;;
16906;SDS011;8570;52.380;4.654;2023-07-13T12:18:15;7.10;;;3.00;;
16906;SDS011;8570;52.380;4.654;2023-07-13T12:23:21;10.50;;;3.15;;
16906;SDS011;8570;52.380;4.654;2023-07-13T12:28:30;10.10;;;3.10;;
16906;SDS011;8570;52.380;4.654;2023-07-13T12:33:35;8.35;;;2.92;;
16906;SDS011;8570;52.380;4.654;2023-07-13T12:38:41;10.82;;;2.75;;
16906;SDS011;8570;52.380;4.654;2023-07-13T12:43:47;9.65;;;3.10;;
16906;SDS011;8570;52.380;4.654;2023-07-13T12:48:52;6.05;;;2.67;;
16906;SDS011;8570;52.380;4.654;2023-07-13T12:53:57;7.95;;;2.72;;
16906;SDS011;8570;52.380;4.654;2023-07-13T12:59:03;9.13;;;2.97;;
16906;SDS011;8570;52.380;4.654;2023-07-13T13:04:09;8.07;;;3.22;;
16906;SDS011;8570;52.380;4.654;2023-07-13T13:09:17;6.47;;;3.08;;
16906;SDS011;8570;52.380;4.654;2023-07-13T13:14:20;8.63;;;3.03;;
16906;SDS011;8570;52.380;4.654;2023-07-13T13:19:24;9.05;;;3.15;;
16906;SDS011;8570;52.380;4.654;2023-07-13T13:24:27;6.05;;;2.65;;
16906;SDS011;8570;52.380;4.654;2023-07-13T13:29:31;6.88;;;2.70;;
16906;SDS011;8570;52.380;4.654;2023-07-13T13:34:40;10.13;;;3.15;;
16906;SDS011;8570;52.380;4.654;2023-07-13T13:39:43;6.93;;;2.78;;
16906;SDS011;8570;52.380;4.654;2023-07-13T13:44:45;6.88;;;2.40;;
16906;SDS011;8570;52.380;4.654;2023-07-13T13:49:50;6.65;;;2.42;;
16906;SDS011;8570;52.380;4.654;2023-07-13T13:54:52;7.20;;;2.63;;
16906;SDS011;8570;52.380;4.654;2023-07-13T13:59:56;5.78;;;2.42;;
16906;SDS011;8570;52.380;4.654;2023-07-13T14:05:01;5.45;;;2.55;;
16906;SDS011;8570;52.380;4.654;2023-07-13T14:10:10;4.00;;;2.53;;
16906;SDS011;8570;52.380;4.654;2023-07-13T14:15:17;4.97;;;2.45;;
16906;SDS011;8570;52.380;4.654;2023-07-13T14:20:24;5.28;;;2.58;;
16906;SDS011;8570;52.380;4.654;2023-07-13T14:25:29;7.35;;;2.63;;
16906;SDS011;8570;52.380;4.654;2023-07-13T14:30:31;5.78;;;2.75;;
16906;SDS011;8570;52.380;4.654;2023-07-13T14:35:35;4.85;;;2.50;;
16906;SDS011;8570;52.380;4.654;2023-07-13T14:40:37;4.05;;;2.45;;
16906;SDS011;8570;52.380;4.654;2023-07-13T14:45:40;7.90;;;2.83;;
16906;SDS011;8570;52.380;4.654;2023-07-13T14:50:49;7.88;;;2.83;;
16906;SDS011;8570;52.380;4.654;2023-07-13T14:55:54;4.70;;;2.40;;
16906;SDS011;8570;52.380;4.654;2023-07-13T15:00:57;8.57;;;3.03;;
16906;SDS011;8570;52.380;4.654;2023-07-13T15:06:00;6.53;;;2.65;;
16906;SDS011;8570;52.380;4.654;2023-07-13T15:11:03;5.53;;;2.80;;
16906;SDS011;8570;52.380;4.654;2023-07-13T15:16:09;6.45;;;2.60;;
16906;SDS011;8570;52.380;4.654;2023-07-13T15:21:19;6.03;;;2.50;;
16906;SDS011;8570;52.380;4.654;2023-07-13T15:26:22;7.07;;;2.70;;
16906;SDS011;8570;52.380;4.654;2023-07-13T15:31:25;6.93;;;2.70;;
16906;SDS011;8570;52.380;4.654;2023-07-13T15:36:29;8.45;;;2.97;;
16906;SDS011;8570;52.380;4.654;2023-07-13T15:41:31;7.65;;;2.85;;
16906;SDS011;8570;52.380;4.654;2023-07-13T15:46:34;8.00;;;2.28;;
16906;SDS011;8570;52.380;4.654;2023-07-13T15:51:38;8.77;;;2.67;;
16906;SDS011;8570;52.380;4.654;2023-07-13T15:56:40;7.93;;;2.50;;
16906;SDS011;8570;52.380;4.654;2023-07-13T16:01:42;7.60;;;2.97;;
16906;SDS011;8570;52.380;4.654;2023-07-13T16:06:47;8.55;;;2.40;;
16906;SDS011;8570;52.380;4.654;2023-07-13T16:11:50;5.10;;;2.45;;
16906;SDS011;8570;52.380;4.654;2023-07-13T16:16:54;8.27;;;2.40;;
16906;SDS011;8570;52.380;4.654;2023-07-13T16:21:58;9.20;;;2.50;;
16906;SDS011;8570;52.380;4.654;2023-07-13T16:27:00;5.50;;;2.40;;
16906;SDS011;8570;52.380;4.654;2023-07-13T16:32:05;7.63;;;3.30;;
16906;SDS011;8570;52.380;4.654;2023-07-13T16:37:12;7.25;;;2.65;;
16906;SDS011;8570;52.380;4.654;2023-07-13T16:42:16;7.43;;;3.05;;
16906;SDS011;8570;52.380;4.654;2023-07-13T16:47:18;10.00;;;2.97;;
16906;SDS011;8570;52.380;4.654;2023-07-13T16:52:23;7.70;;;2.53;;
16906;SDS011;8570;52.380;4.654;2023-07-13T16:57:25;9.93;;;2.45;;
16906;SDS011;8570;52.380;4.654;2023-07-13T17:02:34;7.20;;;2.80;;
16906;SDS011;8570;52.380;4.654;2023-07-13T17:07:40;9.10;;;2.78;;
16906;SDS011;8570;52.380;4.654;2023-07-13T17:12:42;6.25;;;2.65;;
16906;SDS011;8570;52.380;4.654;2023-07-13T17:17:45;9.73;;;2.80;;
16906;SDS011;8570;52.380;4.654;2023-07-13T17:22:50;9.45;;;3.10;;
16906;SDS011;8570;52.380;4.654;2023-07-13T17:27:53;11.82;;;3.40;;
16906;SDS011;8570;52.380;4.654;2023-07-13T17:32:56;10.43;;;2.70;;
16906;SDS011;8570;52.380;4.654;2023-07-13T17:38:00;7.70;;;2.45;;
16906;SDS011;8570;52.380;4.654;2023-07-13T17:43:04;12.05;;;3.58;;
16906;SDS011;8570;52.380;4.654;2023-07-13T17:48:07;8.32;;;2.78;;
16906;SDS011;8570;52.380;4.654;2023-07-13T17:53:14;20.80;;;3.30;;
16906;SDS011;8570;52.380;4.654;2023-07-13T17:58:17;12.80;;;3.20;;
16906;SDS011;8570;52.380;4.654;2023-07-13T18:03:21;13.30;;;2.60;;
16906;SDS011;8570;52.380;4.654;2023-07-13T18:08:28;10.82;;;2.92;;
16906;SDS011;8570;52.380;4.654;2023-07-13T18:13:31;12.68;;;2.83;;
16906;SDS011;8570;52.380;4.654;2023-07-13T18:18:39;9.93;;;2.58;;
16906;SDS011;8570;52.380;4.654;2023-07-13T18:23:43;10.02;;;2.60;;
16906;SDS011;8570;52.380;4.654;2023-07-13T18:28:45;8.30;;;2.65;;
16906;SDS011;8570;52.380;4.654;2023-07-13T18:33:49;9.40;;;2.85;;
16906;SDS011;8570;52.380;4.654;2023-07-13T18:38:54;11.65;;;3.08;;
16906;SDS011;8570;52.380;4.654;2023-07-13T18:43:57;12.07;;;2.95;;
16906;SDS011;8570;52.380;4.654;2023-07-13T18:48:59;9.90;;;3.25;;
16906;SDS011;8570;52.380;4.654;2023-07-13T18:54:04;9.25;;;2.60;;
16906;SDS011;8570;52.380;4.654;2023-07-13T18:59:11;8.63;;;2.95;;
16906;SDS011;8570;52.380;4.654;2023-07-13T19:04:23;9.85;;;2.90;;
16906;SDS011;8570;52.380;4.654;2023-07-13T19:09:30;8.82;;;2.55;;
16906;SDS011;8570;52.380;4.654;2023-07-13T19:14:33;8.65;;;2.90;;
16906;SDS011;8570;52.380;4.654;2023-07-13T19:19:35;7.85;;;2.70;;
16906;SDS011;8570;52.380;4.654;2023-07-13T19:24:39;10.18;;;2.78;;
16906;SDS011;8570;52.380;4.654;2023-07-13T19:29:41;9.57;;;2.40;;
16906;SDS011;8570;52.380;4.654;2023-07-13T19:34:43;8.98;;;2.60;;
16906;SDS011;8570;52.380;4.654;2023-07-13T19:39:47;6.63;;;2.28;;
16906;SDS011;8570;52.380;4.654;2023-07-13T19:44:53;7.18;;;2.45;;
16906;SDS011;8570;52.380;4.654;2023-07-13T19:49:56;5.97;;;2.33;;
16906;SDS011;8570;52.380;4.654;2023-07-13T19:55:00;10.88;;;2.15;;
16906;SDS011;8570;52.380;4.654;2023-07-13T20:00:02;7.30;;;2.20;;
16906;SDS011;8570;52.380;4.654;2023-07-13T20:05:07;10.10;;;2.50;;
16906;SDS011;8570;52.380;4.654;2023-07-13T20:10:16;12.40;;;2.13;;
16906;SDS011;8570;52.380;4.654;2023-07-13T20:15:21;6.93;;;2.03;;
16906;SDS011;8570;52.380;4.654;2023-07-13T20:20:25;10.30;;;2.28;;
16906;SDS011;8570;52.380;4.654;2023-07-13T20:25:32;7.80;;;2.00;;
16906;SDS011;8570;52.380;4.654;2023-07-13T20:30:35;7.95;;;2.50;;
16906;SDS011;8570;52.380;4.654;2023-07-13T20:35:39;7.80;;;1.80;;
16906;SDS011;8570;52.380;4.654;2023-07-13T20:40:42;7.10;;;1.92;;
16906;SDS011;8570;52.380;4.654;2023-07-13T20:45:45;7.95;;;2.15;;
16906;SDS011;8570;52.380;4.654;2023-07-13T20:50:49;9.77;;;2.53;;
16906;SDS011;8570;52.380;4.654;2023-07-13T20:55:53;9.05;;;2.38;;
16906;SDS011;8570;52.380;4.654;2023-07-13T21:00:56;10.85;;;2.40;;
16906;SDS011;8570;52.380;4.654;2023-07-13T21:06:05;6.57;;;2.53;;
16906;SDS011;8570;52.380;4.654;2023-07-13T21:11:13;7.60;;;2.47;;
16906;SDS011;8570;52.380;4.654;2023-07-13T21:16:16;8.73;;;2.47;;
16906;SDS011;8570;52.380;4.654;2023-07-13T21:21:21;10.45;;;2.88;;
16906;SDS011;8570;52.380;4.654;2023-07-13T21:26:26;11.50;;;2.63;;
16906;SDS011;8570;52.380;4.654;2023-07-13T21:31:29;10.90;;;2.92;;
16906;SDS011;8570;52.380;4.654;2023-07-13T21:36:33;8.35;;;2.80;;
16906;SDS011;8570;52.380;4.654;2023-07-13T21:41:37;8.18;;;2.75;;
16906;SDS011;8570;52.380;4.654;2023-07-13T21:46:39;10.40;;;5.07;;
16906;SDS011;8570;52.380;4.654;2023-07-13T21:51:41;11.23;;;3.88;;
16906;SDS011;8570;52.380;4.654;2023-07-13T21:56:44;9.77;;;3.00;;
16906;SDS011;8570;52.380;4.654;2023-07-13T22:01:47;12.07;;;2.95;;
16906;SDS011;8570;52.380;4.654;2023-07-13T22:06:49;12.30;;;3.00;;
16906;SDS011;8570;52.380;4.654;2023-07-13T22:11:52;10.50;;;3.08;;
16906;SDS011;8570;52.380;4.654;2023-07-13T22:16:54;10.60;;;3.05;;
16906;SDS011;8570;52.380;4.654;2023-07-13T22:21:56;9.98;;;3.10;;
16906;SDS011;8570;52.380;4.654;2023-07-13T22:27:00;12.38;;;3.28;;
16906;SDS011;8570;52.380;4.654;2023-07-13T22:32:02;10.95;;;3.03;;
16906;SDS011;8570;52.380;4.654;2023-07-13T22:37:06;9.88;;;3.10;;
16906;SDS011;8570;52.380;4.654;2023-07-13T22:42:11;11.68;;;3.53;;
16906;SDS011;8570;52.380;4.654;2023-07-13T22:47:14;15.02;;;3.28;;
16906;SDS011;8570;52.380;4.654;2023-07-13T22:52:17;9.77;;;2.83;;
16906;SDS011;8570;52.380;4.654;2023-07-13T22:57:20;11.10;;;3.28;;
16906;SDS011;8570;52.380;4.654;2023-07-13T23:02:24;9.27;;;2.90;;
16906;SDS011;8570;52.380;4.654;2023-07-13T23:07:26;10.05;;;3.08;;
16906;SDS011;8570;52.380;4.654;2023-07-13T23:12:30;16.23;;;3.53;;
16906;SDS011;8570;52.380;4.654;2023-07-13T23:17:32;10.73;;;2.95;;
16906;SDS011;8570;52.380;4.654;2023-07-13T23:22:34;12.10;;;3.15;;
16906;SDS011;8570;52.380;4.654;2023-07-13T23:27:37;10.65;;;3.42;;
16906;SDS011;8570;52.380;4.654;2023-07-13T23:32:40;10.27;;;2.88;;
16906;SDS011;8570;52.380;4.654;2023-07-13T23:37:42;9.30;;;2.95;;
16906;SDS011;8570;52.380;4.654;2023-07-13T23:42:48;5.88;;;2.88;;
16906;SDS011;8570;52.380;4.654;2023-07-13T23:47:50;8.52;;;2.83;;
16906;SDS011;8570;52.380;4.654;2023-07-13T23:52:54;10.25;;;3.03;;
16906;SDS011;8570;52.380;4.654;2023-07-13T23:57:59;8.75;;;3.05;;
